Time;durP1;ratioP1;P1;durP2;ratioP2;P2;SDS_P1;SDS_P2;PMS_P1;PMS_P2;Temp;Humidity;BMP_temperature;BMP_pressure;BME280_temperature;BME280_humidity;BME280_pressure;Samples;Min_cycle;Max_cycle;Signal;HPM_P1;HPM_P2
2024/01/12 00:00:22;;;;;;;17.05;5.88;;;;;;;1.93;100.00;103467.63;5084018;28;20049;-75
2024/01/12 00:02:49;;;;;;;12.90;5.95;;;;;;;1.93;100.00;103463.16;5083533;28;20131;-75
2024/01/12 00:05:16;;;;;;;21.88;6.65;;;;;;;1.92;100.00;103471.34;5081736;28;20040;-75
2024/01/12 00:07:44;;;;;;;20.23;6.25;;;;;;;1.93;100.00;103478.91;5081537;28;20037;-75
2024/01/12 00:10:10;;;;;;;16.17;4.82;;;;;;;1.94;100.00;103479.69;5084720;28;20076;-75
2024/01/12 00:12:37;;;;;;;15.93;4.13;;;;;;;1.96;100.00;103470.41;5078972;28;20045;-74
2024/01/12 00:15:05;;;;;;;17.83;3.83;;;;;;;1.98;100.00;103477.97;5083907;28;20040;-75
2024/01/12 00:17:32;;;;;;;18.05;4.72;;;;;;;1.99;100.00;103476.91;5080791;28;20095;-75
2024/01/12 00:19:59;;;;;;;9.57;4.00;;;;;;;1.98;100.00;103478.75;5083155;28;20049;-75
2024/01/12 00:22:25;;;;;;;17.42;4.50;;;;;;;2.00;100.00;103473.16;5080361;28;20056;-75
2024/01/12 00:24:52;;;;;;;12.77;5.50;;;;;;;2.01;100.00;103472.84;5082532;28;20059;-75
2024/01/12 00:27:18;;;;;;;13.23;3.85;;;;;;;2.01;99.93;103462.34;5083229;28;20045;-75
2024/01/12 00:29:45;;;;;;;14.98;3.60;;;;;;;1.99;99.80;103464.53;5082706;28;20068;-75
2024/01/12 00:32:12;;;;;;;17.90;4.05;;;;;;;1.99;99.71;103474.25;5081211;28;20557;-75
2024/01/12 00:34:38;;;;;;;12.65;3.45;;;;;;;2.01;99.95;103482.59;5080608;28;20041;-75
2024/01/12 00:37:05;;;;;;;10.90;3.35;;;;;;;2.01;99.48;103482.59;5080354;28;20068;-75
2024/01/12 00:39:32;;;;;;;11.38;3.35;;;;;;;2.02;99.25;103484.13;5086938;28;20049;-75
2024/01/12 00:41:59;;;;;;;12.30;3.10;;;;;;;2.03;99.32;103490.91;5085439;28;20059;-75
2024/01/12 00:44:26;;;;;;;9.38;3.42;;;;;;;2.03;99.03;103492.78;5081901;28;20048;-76
2024/01/12 00:46:52;;;;;;;17.95;3.67;;;;;;;2.03;99.04;103490.16;5086303;28;20060;-75
2024/01/12 00:49:19;;;;;;;9.27;3.60;;;;;;;2.03;98.86;103480.41;5084753;28;20579;-75
2024/01/12 00:51:47;;;;;;;14.18;3.63;;;;;;;2.04;98.82;103489.84;5086556;28;20043;-75
2024/01/12 00:54:14;;;;;;;16.02;3.22;;;;;;;2.05;98.62;103494.00;5084145;28;20037;-75
2024/01/12 00:56:42;;;;;;;16.13;3.60;;;;;;;2.06;98.51;103492.94;5085281;28;20041;-75
2024/01/12 00:59:09;;;;;;;19.42;4.22;;;;;;;2.07;98.43;103494.47;5080496;28;20073;-75
2024/01/12 01:01:35;;;;;;;10.65;3.22;;;;;;;2.07;98.46;103493.69;5087373;28;20178;-79
2024/01/12 01:04:02;;;;;;;16.50;3.42;;;;;;;2.08;98.32;103498.63;5086711;28;20029;-79
2024/01/12 01:06:29;;;;;;;13.35;3.97;;;;;;;2.08;98.30;103506.53;5089848;28;20116;-78
2024/01/12 01:08:57;;;;;;;11.77;3.47;;;;;;;2.08;98.20;103511.78;5092398;28;20550;-78
2024/01/12 01:11:23;;;;;;;12.82;3.25;;;;;;;2.10;98.10;103506.22;5097462;28;20055;-78
2024/01/12 01:13:50;;;;;;;22.25;4.07;;;;;;;2.10;98.13;103495.69;5091876;28;20182;-78
2024/01/12 01:16:17;;;;;;;14.30;3.50;;;;;;;2.10;98.08;103499.09;5088183;28;20049;-78
2024/01/12 01:18:46;;;;;;;11.55;3.70;;;;;;;2.11;98.03;103495.38;5091935;28;20045;-78
2024/01/12 01:21:12;;;;;;;11.20;3.55;;;;;;;2.10;97.93;103493.84;5092371;28;20037;-78
2024/01/12 01:23:39;;;;;;;11.38;3.67;;;;;;;2.11;97.91;103502.50;5087376;28;20045;-78
2024/01/12 01:26:06;;;;;;;10.35;3.10;;;;;;;2.10;98.00;103493.84;5084995;28;20041;-78
2024/01/12 01:28:33;;;;;;;16.98;3.63;;;;;;;2.10;98.02;103487.81;5092339;28;20127;-78
2024/01/12 01:31:00;;;;;;;14.23;3.63;;;;;;;2.09;97.98;103486.28;5094229;28;20051;-78
2024/01/12 01:33:26;;;;;;;13.75;3.42;;;;;;;2.08;98.00;103485.50;5093138;28;20104;-78
2024/01/12 01:35:53;;;;;;;11.45;3.40;;;;;;;2.09;97.94;103486.28;5093218;28;20064;-78
2024/01/12 01:38:21;;;;;;;15.73;3.75;;;;;;;2.08;98.19;103489.97;5096302;28;20091;-78
2024/01/12 01:40:47;;;;;;;13.63;4.13;;;;;;;2.09;98.01;103486.28;5084381;28;20574;-78
2024/01/12 01:43:14;;;;;;;11.82;3.70;;;;;;;2.08;98.21;103482.09;5087896;28;20116;-78
2024/01/12 01:45:41;;;;;;;12.82;3.45;;;;;;;2.06;98.11;103482.41;5086813;28;20388;-78
2024/01/12 01:48:08;;;;;;;14.05;3.65;;;;;;;2.06;98.34;103482.41;5084336;28;20139;-78
2024/01/12 01:50:36;;;;;;;9.98;2.83;;;;;;;2.06;98.22;103497.41;5090181;28;20105;-78
2024/01/12 01:53:04;;;;;;;11.00;4.18;;;;;;;2.06;98.21;103494.78;5088204;28;20040;-78
2024/01/12 01:55:31;;;;;;;5.80;3.38;;;;;;;2.05;98.29;103494.00;5092539;28;20048;-78
2024/01/12 01:57:59;;;;;;;14.00;3.75;;;;;;;2.05;98.25;103490.59;5089732;28;20045;-78
2024/01/12 02:00:27;;;;;;;17.25;3.92;;;;;;;2.03;98.36;103500.66;5088227;28;20041;-75
2024/01/12 02:02:54;;;;;;;15.50;4.13;;;;;;;2.01;98.28;103496.50;5081900;28;20048;-75
2024/01/12 02:05:22;;;;;;;16.42;3.72;;;;;;;2.01;98.33;103490.47;5083255;28;20922;-75
2024/01/12 02:07:49;;;;;;;9.15;3.38;;;;;;;1.99;98.24;103484.78;5087940;28;20124;-76
2024/01/12 02:10:16;;;;;;;8.88;3.92;;;;;;;1.97;98.29;103490.34;5083718;28;20065;-75
2024/01/12 02:12:43;;;;;;;9.77;3.53;;;;;;;1.99;98.43;103484.78;5083445;28;20122;-75
2024/01/12 02:15:10;;;;;;;17.55;4.18;;;;;;;1.98;98.52;103491.13;5084807;28;20143;-75
2024/01/12 02:17:36;;;;;;;16.88;3.50;;;;;;;1.97;98.64;103487.72;5084503;28;20046;-75
2024/01/12 02:20:04;;;;;;;11.27;3.78;;;;;;;1.98;98.95;103484.00;5084504;28;20485;-75
2024/01/12 02:22:31;;;;;;;12.57;3.95;;;;;;;1.99;99.20;103479.53;5084871;28;20119;-75
2024/01/12 02:24:58;;;;;;;11.00;3.33;;;;;;;1.99;99.07;103472.41;5084479;28;20043;-75
2024/01/12 02:27:25;;;;;;;12.55;3.58;;;;;;;2.01;99.13;103475.47;5082168;28;20835;-75
2024/01/12 02:29:52;;;;;;;13.52;2.97;;;;;;;2.00;98.92;103481.81;5081772;28;20119;-75
2024/01/12 02:32:19;;;;;;;10.35;3.80;;;;;;;2.00;99.05;103484.44;5078521;28;20045;-75
2024/01/12 02:34:46;;;;;;;12.85;3.30;;;;;;;2.02;99.13;103486.75;5085405;28;20131;-75
2024/01/12 02:37:12;;;;;;;12.68;3.28;;;;;;;2.03;99.20;103484.91;5082562;28;20067;-75
2024/01/12 02:39:39;;;;;;;19.00;3.95;;;;;;;2.02;99.13;103484.13;5083113;28;20132;-75
2024/01/12 02:42:06;;;;;;;8.05;3.38;;;;;;;2.02;99.35;103481.50;5085097;28;20049;-75
2024/01/12 02:44:32;;;;;;;13.43;4.15;;;;;;;2.02;99.31;103478.88;5085900;28;20041;-75
2024/01/12 02:46:59;;;;;;;13.07;3.08;;;;;;;2.01;99.19;103475.47;5083258;28;20553;-75
2024/01/12 02:49:25;;;;;;;6.05;3.30;;;;;;;2.01;99.31;103474.69;5081361;28;20048;-75
2024/01/12 02:51:52;;;;;;;9.30;3.10;;;;;;;2.01;99.25;103461.56;5085526;28;20043;-75
2024/01/12 02:54:19;;;;;;;9.75;2.85;;;;;;;1.97;99.09;103464.06;5077571;28;20524;-75
2024/01/12 02:56:45;;;;;;;11.60;3.28;;;;;;;1.96;99.29;103465.16;5085426;28;20049;-75
2024/01/12 02:59:12;;;;;;;11.95;3.58;;;;;;;1.96;99.31;103462.53;5084055;28;20045;-74
2024/01/12 03:01:39;;;;;;;9.02;3.55;;;;;;;1.95;99.28;103476.75;5083072;28;20130;-75
2024/01/12 03:04:05;;;;;;;13.52;3.75;;;;;;;1.96;99.51;103467.78;5081715;28;20045;-75
2024/01/12 03:06:32;;;;;;;12.77;3.65;;;;;;;1.96;99.62;103462.53;5082465;28;20512;-75
2024/01/12 03:08:58;;;;;;;9.02;3.00;;;;;;;1.97;99.75;103473.81;5084170;28;20068;-75
2024/01/12 03:11:25;;;;;;;11.90;3.50;;;;;;;1.99;99.93;103471.63;5081973;28;20052;-75
2024/01/12 03:13:52;;;;;;;6.47;2.78;;;;;;;2.00;100.00;103473.16;5084819;28;20072;-75
2024/01/12 03:16:19;;;;;;;8.98;3.28;;;;;;;2.00;100.00;103468.66;5080906;28;20045;-76
2024/01/12 03:18:49;;;;;;;12.00;3.45;;;;;;;2.01;100.00;103454.44;5085262;28;20526;-75
2024/01/12 03:21:17;;;;;;;8.30;2.97;;;;;;;2.03;100.00;103456.75;5082162;28;20800;-75
2024/01/12 03:23:44;;;;;;;12.27;3.70;;;;;;;2.03;100.00;103445.47;5080938;28;20124;-75
2024/01/12 03:26:11;;;;;;;11.73;3.50;;;;;;;2.04;100.00;103447.78;5083827;28;20045;-75
2024/01/12 03:28:37;;;;;;;8.95;3.10;;;;;;;2.04;100.00;103445.16;5082702;28;20072;-74
2024/01/12 03:31:04;;;;;;;13.80;4.15;;;;;;;2.05;100.00;103438.06;5082264;28;20068;-75
2024/01/12 03:33:31;;;;;;;7.72;3.10;;;;;;;2.06;100.00;103431.72;5081242;28;20073;-74
2024/01/12 03:35:58;;;;;;;12.65;3.30;;;;;;;2.05;100.00;103441.47;5085053;28;20048;-74
2024/01/12 03:38:25;;;;;;;16.73;4.10;;;;;;;2.06;100.00;103436.97;5081125;28;20110;-74
2024/01/12 03:40:51;;;;;;;13.48;3.20;;;;;;;2.06;100.00;103436.97;5080477;28;20079;-74
2024/01/12 03:43:18;;;;;;;16.80;4.03;;;;;;;2.07;100.00;103441.13;5084075;28;20476;-74
2024/01/12 03:45:44;;;;;;;9.57;3.08;;;;;;;2.07;100.00;103441.91;5082454;28;20147;-75
2024/01/12 03:48:11;;;;;;;10.23;3.53;;;;;;;2.08;100.00;103432.16;5081926;28;20439;-74
2024/01/12 03:50:38;;;;;;;11.73;3.17;;;;;;;2.09;100.00;103441.59;5079326;28;20072;-75
2024/01/12 03:53:05;;;;;;;12.90;2.92;;;;;;;2.09;100.00;103444.22;5080493;28;20041;-75
2024/01/12 03:55:32;;;;;;;9.18;3.35;;;;;;;2.08;100.00;103446.09;5085356;28;20068;-75
2024/01/12 03:57:58;;;;;;;9.85;3.28;;;;;;;2.08;100.00;103451.34;5081655;28;20886;-75
2024/01/12 04:00:25;;;;;;;9.20;2.83;;;;;;;2.09;100.00;103452.09;5081158;28;20099;-78
2024/01/12 04:02:52;;;;;;;15.25;3.78;;;;;;;2.09;100.00;103449.47;5082646;28;20044;-77
2024/01/12 04:05:19;;;;;;;6.22;3.10;;;;;;;2.08;100.00;103453.97;5086288;28;20538;-78
2024/01/12 04:07:46;;;;;;;13.43;4.00;;;;;;;2.08;100.00;103448.72;5085141;28;20810;-77
2024/01/12 04:10:12;;;;;;;14.10;3.08;;;;;;;2.09;100.00;103447.63;5081210;28;20110;-77
2024/01/12 04:12:39;;;;;;;11.38;2.97;;;;;;;2.08;100.00;103448.72;5082806;28;20511;-77
2024/01/12 04:15:07;;;;;;;9.38;4.10;;;;;;;2.09;100.00;103454.75;5085356;28;20107;-77
2024/01/12 04:17:34;;;;;;;6.35;3.60;;;;;;;2.09;100.00;103452.88;5085758;28;20037;-77
2024/01/12 04:20:02;;;;;;;10.52;3.95;;;;;;;2.10;100.00;103451.03;5088023;28;20036;-77
2024/01/12 04:22:28;;;;;;;8.90;4.35;;;;;;;2.10;100.00;103443.13;5079913;28;20041;-77
2024/01/12 04:24:55;;;;;;;6.22;3.65;;;;;;;2.09;100.00;103429.22;5080522;28;20041;-77
2024/01/12 04:27:22;;;;;;;8.10;4.28;;;;;;;2.07;100.00;103428.00;5084022;28;20047;-77
2024/01/12 04:29:48;;;;;;;11.75;4.50;;;;;;;2.07;100.00;103435.88;5086948;28;20041;-77
2024/01/12 04:32:16;;;;;;;12.55;4.13;;;;;;;2.08;100.00;103426.91;5084383;28;20040;-77
2024/01/12 04:34:42;;;;;;;5.90;3.47;;;;;;;2.07;100.00;103425.38;5085709;28;20577;-77
2024/01/12 04:37:09;;;;;;;7.28;3.70;;;;;;;2.06;100.00;103423.84;5084435;28;20045;-77
2024/01/12 04:39:36;;;;;;;5.25;3.22;;;;;;;2.04;100.00;103421.53;5084469;28;20045;-78
2024/01/12 04:42:03;;;;;;;10.65;3.83;;;;;;;2.03;100.00;103427.84;5088333;28;20106;-78
2024/01/12 04:44:29;;;;;;;10.27;3.92;;;;;;;2.03;100.00;103406.84;5086175;28;20098;-78
2024/01/12 04:46:56;;;;;;;6.57;3.58;;;;;;;2.01;100.00;103409.78;5083268;28;20048;-78
2024/01/12 04:49:22;;;;;;;8.00;3.35;;;;;;;2.00;100.00;103402.97;5086594;28;20068;-77
2024/01/12 04:51:50;;;;;;;8.90;3.70;;;;;;;2.00;100.00;103399.59;5084819;28;20056;-77
2024/01/12 04:54:16;;;;;;;12.40;3.97;;;;;;;1.99;100.00;103405.94;5085444;28;20459;-77
2024/01/12 04:56:43;;;;;;;6.50;3.95;;;;;;;1.99;100.00;103400.69;5083034;28;20540;-77
2024/01/12 04:59:10;;;;;;;8.27;3.40;;;;;;;1.97;100.00;103398.38;5083129;28;20049;-77
2024/01/12 05:01:36;;;;;;;7.50;4.03;;;;;;;1.96;100.00;103398.69;5092011;28;20041;-78
2024/01/12 05:04:03;;;;;;;12.23;3.45;;;;;;;1.92;100.00;103392.53;5095313;28;20047;-78
2024/01/12 05:06:30;;;;;;;10.35;3.20;;;;;;;1.90;100.00;103392.84;5088129;28;20056;-75
2024/01/12 05:08:56;;;;;;;7.00;3.55;;;;;;;1.89;100.00;103398.41;5086949;28;20043;-76
2024/01/12 05:11:26;;;;;;;10.38;3.80;;;;;;;1.87;100.00;103398.72;5083717;28;20072;-75
2024/01/12 05:13:53;;;;;;;6.95;3.28;;;;;;;1.86;100.00;103409.53;5082888;28;20136;-75
2024/01/12 05:16:19;;;;;;;5.88;3.28;;;;;;;1.86;100.00;103409.53;5084265;28;20055;-75
2024/01/12 05:18:46;;;;;;;6.15;3.40;;;;;;;1.86;100.00;103418.19;5085342;28;20496;-73
2024/01/12 05:21:13;;;;;;;5.43;3.05;;;;;;;1.86;100.00;103406.91;5084275;28;20048;-73
2024/01/12 05:23:43;;;;;;;8.55;3.33;;;;;;;1.86;100.00;103415.56;5085456;28;20056;-73
2024/01/12 05:26:12;;;;;;;6.20;2.67;;;;;;;1.87;100.00;103413.72;5083998;28;20068;-73
2024/01/12 05:28:39;;;;;;;6.40;2.80;;;;;;;1.86;100.00;103412.94;5086072;28;20419;-74
2024/01/12 05:31:08;;;;;;;9.93;3.53;;;;;;;1.85;100.00;103421.91;5083663;28;20119;-75
2024/01/12 05:33:35;;;;;;;6.10;2.92;;;;;;;1.86;100.00;103420.06;5083191;28;20045;-74
2024/01/12 05:36:02;;;;;;;9.60;3.08;;;;;;;1.83;100.00;103423.31;5086545;28;20047;-75
2024/01/12 05:38:29;;;;;;;8.73;3.20;;;;;;;1.80;100.00;103424.69;5082175;28;20136;-74
2024/01/12 05:40:56;;;;;;;6.05;3.10;;;;;;;1.83;100.00;103423.31;5086394;28;20048;-74
2024/01/12 05:43:22;;;;;;;7.93;2.80;;;;;;;1.83;100.00;103420.69;5083566;28;20079;-74
2024/01/12 05:45:49;;;;;;;6.90;3.28;;;;;;;1.83;100.00;103420.69;5084695;28;20437;-74
2024/01/12 05:48:15;;;;;;;7.10;2.58;;;;;;;1.82;100.00;103429.66;5083442;28;20045;-74
2024/01/12 05:50:42;;;;;;;3.67;2.67;;;;;;;1.80;100.00;103431.81;5085859;28;20132;-74
2024/01/12 05:53:09;;;;;;;8.90;3.17;;;;;;;1.81;100.00;103425.47;5082663;28;20124;-74
2024/01/12 05:55:35;;;;;;;6.85;3.05;;;;;;;1.80;100.00;103421.31;5082833;28;20045;-74
2024/01/12 05:58:03;;;;;;;6.65;3.13;;;;;;;1.77;100.00;103422.69;5079547;28;20073;-74
2024/01/12 06:00:30;;;;;;;3.78;2.60;;;;;;;1.78;100.00;103418.22;5085669;28;20051;-76
2024/01/12 06:02:57;;;;;;;8.10;2.75;;;;;;;1.78;100.00;103415.59;5084991;28;20049;-76
2024/01/12 06:05:24;;;;;;;11.18;3.60;;;;;;;1.76;100.00;103415.91;5084198;28;20516;-75
2024/01/12 06:07:50;;;;;;;6.80;3.75;;;;;;;1.76;100.00;103426.41;5083938;28;20767;-75
2024/01/12 06:10:17;;;;;;;6.93;3.03;;;;;;;1.75;100.00;103419.63;5082964;28;20048;-75
2024/01/12 06:12:43;;;;;;;7.13;3.75;;;;;;;1.76;100.00;103426.41;5081851;28;20771;-75
2024/01/12 06:15:10;;;;;;;8.63;3.97;;;;;;;1.75;100.00;103435.38;5085424;28;20051;-75
2024/01/12 06:17:37;;;;;;;8.10;3.63;;;;;;;1.74;100.00;103433.06;5082535;28;20148;-75
2024/01/12 06:20:04;;;;;;;8.10;3.45;;;;;;;1.72;100.00;103437.84;5077109;28;20570;-75
2024/01/12 06:22:30;;;;;;;6.47;3.67;;;;;;;1.73;100.00;103439.41;5082504;28;20045;-75
2024/01/12 06:24:57;;;;;;;5.40;3.47;;;;;;;1.71;100.00;103439.72;5084599;28;20045;-75
2024/01/12 06:27:24;;;;;;;9.32;2.92;;;;;;;1.72;100.00;103441.25;5082051;28;20041;-75
2024/01/12 06:29:50;;;;;;;9.10;2.90;;;;;;;1.70;100.00;103437.38;5084556;28;20079;-75
2024/01/12 06:32:17;;;;;;;7.05;2.80;;;;;;;1.69;100.00;103436.63;5084535;28;20040;-75
2024/01/12 06:34:44;;;;;;;6.93;3.05;;;;;;;1.66;100.00;103443.28;5081943;28;20528;-76
2024/01/12 06:37:10;;;;;;;10.80;3.22;;;;;;;1.65;100.00;103440.94;5084367;28;20566;-75
2024/01/12 06:39:39;;;;;;;8.88;3.03;;;;;;;1.63;100.00;103438.63;5085698;28;20193;-75
2024/01/12 06:42:06;;;;;;;7.50;3.55;;;;;;;1.63;100.00;103427.38;5072355;28;20511;-75
2024/01/12 06:44:38;;;;;;;11.90;3.72;;;;;;;1.63;100.00;103427.38;5081760;28;20571;-76
2024/01/12 06:47:05;;;;;;;10.85;3.30;;;;;;;1.64;100.00;103434.16;5082168;28;20037;-76
2024/01/12 06:49:31;;;;;;;4.53;3.05;;;;;;;1.64;100.00;103424.44;5081862;28;20052;-76
2024/01/12 06:51:58;;;;;;;6.97;3.33;;;;;;;1.63;100.00;103422.13;5085443;28;20132;-76
2024/01/12 06:54:25;;;;;;;9.00;3.78;;;;;;;1.63;100.00;103422.88;5084874;28;20041;-76
2024/01/12 06:56:55;;;;;;;11.48;4.30;;;;;;;1.61;100.00;103419.78;5081547;28;20041;-76
2024/01/12 06:59:23;;;;;;;9.13;3.28;;;;;;;1.61;100.00;103421.66;5083205;28;20387;-76
2024/01/12 07:01:49;;;;;;;9.70;3.95;;;;;;;1.62;100.00;103417.94;5083418;28;20072;-76
2024/01/12 07:04:16;;;;;;;8.65;3.50;;;;;;;1.62;100.00;103413.47;5083829;28;20501;-77
2024/01/12 07:06:43;;;;;;;9.27;3.65;;;;;;;1.62;100.00;103413.47;5087047;28;20040;-77
2024/01/12 07:09:14;;;;;;;7.75;3.72;;;;;;;1.64;100.00;103413.91;5082610;28;20048;-75
2024/01/12 07:11:44;;;;;;;7.47;3.88;;;;;;;1.65;100.00;103418.09;5075291;28;20128;-76
2024/01/12 07:14:11;;;;;;;9.23;4.70;;;;;;;1.64;100.00;103416.56;5077540;28;20049;-75
2024/01/12 07:16:38;;;;;;;5.30;3.90;;;;;;;1.65;100.00;103412.84;5084599;28;20052;-76
2024/01/12 07:19:04;;;;;;;13.68;4.40;;;;;;;1.66;100.00;103406.50;5082139;28;20485;-75
2024/01/12 07:21:31;;;;;;;9.20;4.03;;;;;;;1.65;100.00;103412.84;5083839;28;20118;-75
2024/01/12 07:23:58;;;;;;;7.82;3.65;;;;;;;1.65;100.00;103414.69;5083904;28;20044;-76
2024/01/12 07:26:25;;;;;;;10.20;3.78;;;;;;;1.65;100.00;103410.22;5084018;28;20124;-76
2024/01/12 07:28:52;;;;;;;9.77;3.60;;;;;;;1.62;100.00;103408.22;5090540;28;20049;-79
2024/01/12 07:31:19;;;;;;;6.22;3.50;;;;;;;1.62;100.00;103400.34;5085895;28;20053;-79
2024/01/12 07:33:45;;;;;;;10.82;4.10;;;;;;;1.61;100.00;103400.66;5085042;28;20468;-78
2024/01/12 07:36:12;;;;;;;7.43;3.20;;;;;;;1.60;100.00;103407.75;5086734;28;20500;-77
2024/01/12 07:38:39;;;;;;;8.50;3.22;;;;;;;1.61;100.00;103411.91;5087803;28;20493;-78
2024/01/12 07:41:06;;;;;;;12.13;3.35;;;;;;;1.62;100.00;103407.44;5088375;28;20068;-79
2024/01/12 07:43:33;;;;;;;11.43;3.38;;;;;;;1.62;100.00;103410.84;5086670;28;20202;-79
2024/01/12 07:46:00;;;;;;;10.30;3.70;;;;;;;1.62;100.00;103413.47;5085848;28;20067;-77
2024/01/12 07:48:26;;;;;;;4.00;3.45;;;;;;;1.62;100.00;103412.69;5085598;28;20044;-78
2024/01/12 07:50:54;;;;;;;6.78;3.13;;;;;;;1.63;100.00;103412.38;5087441;28;20151;-77
2024/01/12 07:53:20;;;;;;;8.63;3.70;;;;;;;1.64;100.00;103415.78;5085764;28;20036;-77
2024/01/12 07:55:49;;;;;;;11.68;3.10;;;;;;;1.64;100.00;103406.03;5085665;28;20048;-78
2024/01/12 07:58:18;;;;;;;7.57;3.72;;;;;;;1.66;100.00;103413.59;5086522;28;20554;-78
2024/01/12 08:00:45;;;;;;;4.70;2.90;;;;;;;1.67;100.00;103407.28;5085513;28;20044;-79
2024/01/12 08:03:12;;;;;;;17.13;3.47;;;;;;;1.68;100.00;103406.19;5090701;28;20042;-78
2024/01/12 08:05:39;;;;;;;11.95;3.97;;;;;;;1.69;100.00;103412.97;5087386;28;20487;-77
2024/01/12 08:08:05;;;;;;;8.80;4.10;;;;;;;1.70;100.00;103421.63;5087897;28;20051;-77
2024/01/12 08:10:32;;;;;;;8.43;3.30;;;;;;;1.73;100.00;103432.28;5088894;28;20041;-76
2024/01/12 08:12:58;;;;;;;7.82;2.78;;;;;;;1.74;100.00;103441.72;5085763;28;20064;-76
2024/01/12 08:15:25;;;;;;;8.85;3.90;;;;;;;1.76;100.00;103444.03;5084266;28;20037;-76
2024/01/12 08:17:52;;;;;;;10.98;4.05;;;;;;;1.78;100.00;103436.59;5084647;28;20057;-76
2024/01/12 08:20:18;;;;;;;10.80;3.88;;;;;;;1.80;100.00;103439.69;5087522;28;20045;-76
2024/01/12 08:22:45;;;;;;;9.45;3.75;;;;;;;1.81;100.00;103438.59;5080762;28;20048;-75
2024/01/12 08:25:12;;;;;;;12.30;3.83;;;;;;;1.80;100.00;103429.97;5087427;28;20131;-76
2024/01/12 08:27:38;;;;;;;9.75;3.92;;;;;;;1.83;100.00;103433.81;5084720;28;20041;-77
2024/01/12 08:30:07;;;;;;;5.93;3.20;;;;;;;1.84;100.00;103423.00;5085016;28;20104;-76
2024/01/12 08:32:34;;;;;;;7.10;3.28;;;;;;;1.88;100.00;103425.78;5082550;28;20045;-77
2024/01/12 08:35:01;;;;;;;6.38;3.80;;;;;;;1.88;100.00;103429.16;5086494;28;20051;-76
2024/01/12 08:37:28;;;;;;;10.55;4.30;;;;;;;1.88;100.00;103429.16;5084419;28;20095;-76
2024/01/12 08:39:54;;;;;;;6.05;3.95;;;;;;;1.90;100.00;103424.38;5086999;28;20549;-76
2024/01/12 08:42:21;;;;;;;8.35;3.92;;;;;;;1.93;100.00;103430.84;5084079;28;20045;-75
2024/01/12 08:44:47;;;;;;;5.50;3.85;;;;;;;1.94;100.00;103435.03;5082634;28;20053;-76
2024/01/12 08:47:14;;;;;;;8.48;3.72;;;;;;;1.94;100.00;103429.78;5086628;28;20045;-76
2024/01/12 08:49:40;;;;;;;10.27;4.03;;;;;;;1.96;100.00;103433.63;5084310;28;20049;-77
2024/01/12 08:52:07;;;;;;;4.68;3.60;;;;;;;1.98;100.00;103428.81;5084962;28;20045;-76
2024/01/12 08:54:34;;;;;;;7.88;3.92;;;;;;;1.99;100.00;103427.75;5085600;28;20482;-76
2024/01/12 08:57:00;;;;;;;11.52;5.10;;;;;;;2.00;100.00;103413.50;5084262;28;20048;-77
2024/01/12 08:59:27;;;;;;;10.20;4.13;;;;;;;2.02;100.00;103421.06;5082469;28;20048;-76
2024/01/12 09:01:57;;;;;;;8.27;3.88;;;;;;;2.04;100.00;103418.88;5084352;28;20044;-76
2024/01/12 09:04:23;;;;;;;6.22;3.78;;;;;;;2.05;100.00;103414.41;5085264;28;20047;-75
2024/01/12 09:06:50;;;;;;;7.75;3.45;;;;;;;2.09;100.00;103413.47;5085408;28;20045;-79
2024/01/12 09:09:18;;;;;;;8.27;3.10;;;;;;;2.11;100.00;103406.03;5088168;28;20045;-78
2024/01/12 09:11:44;;;;;;;8.75;3.33;;;;;;;2.15;100.00;103414.06;5088115;28;20077;-77
2024/01/12 09:14:12;;;;;;;5.20;3.08;;;;;;;2.22;100.00;103424.84;5088253;28;20057;-81
2024/01/12 09:16:39;;;;;;;5.95;3.20;;;;;;;2.27;100.00;103420.19;5089241;28;20033;-78
2024/01/12 09:19:07;;;;;;;8.32;2.58;;;;;;;2.30;100.00;103416.94;5085391;28;20845;-77
2024/01/12 09:21:34;;;;;;;8.30;3.40;;;;;;;2.34;100.00;103422.34;5086687;28;20527;-76
2024/01/12 09:24:00;;;;;;;8.38;3.67;;;;;;;2.37;100.00;103413.81;5085030;28;20049;-76
2024/01/12 09:26:27;;;;;;;6.53;2.72;;;;;;;2.40;100.00;103423.66;5085550;28;20045;-76
2024/01/12 09:28:54;;;;;;;8.00;3.30;;;;;;;2.44;100.00;103421.16;5082764;28;20127;-77
2024/01/12 09:31:20;;;;;;;7.07;3.47;;;;;;;2.48;100.00;103412.34;5086876;28;20480;-76
2024/01/12 09:33:47;;;;;;;8.65;4.20;;;;;;;2.54;100.00;103428.69;5086564;28;20519;-76
2024/01/12 09:36:14;;;;;;;14.02;4.65;;;;;;;2.55;100.00;103412.59;5082823;28;20080;-76
2024/01/12 09:38:41;;;;;;;8.77;5.40;;;;;;;2.59;100.00;103421.41;5084357;28;20328;-76
2024/01/12 09:41:09;;;;;;;9.07;4.93;;;;;;;2.64;100.00;103428.34;5084977;28;20499;-76
2024/01/12 09:43:37;;;;;;;10.40;3.95;;;;;;;2.65;100.00;103414.88;5082475;28;20099;-76
2024/01/12 09:46:07;;;;;;;9.30;4.05;;;;;;;2.71;100.00;103418.09;5084029;28;20056;-76
2024/01/12 09:48:34;;;;;;;15.80;4.15;;;;;;;2.74;100.00;103404.28;5085697;28;20048;-76
2024/01/12 09:51:01;;;;;;;7.55;3.38;;;;;;;2.80;100.00;103418.03;5083541;28;20077;-76
2024/01/12 09:53:28;;;;;;;15.98;3.50;;;;;;;2.84;100.00;103411.78;5086679;28;20566;-76
2024/01/12 09:55:55;;;;;;;8.10;3.20;;;;;;;2.88;100.00;103417.16;5083290;28;20041;-76
2024/01/12 09:58:37;;;;;;;7.28;3.15;;;;;;;2.90;100.00;103421.03;5079517;28;20045;-76
2024/01/12 10:01:05;;;;;;;5.88;3.08;;;;;;;2.93;100.00;103419.59;5083251;28;20540;-76
2024/01/12 10:03:32;;;;;;;8.23;3.50;;;;;;;2.96;100.00;103424.22;5084673;28;20570;-77
2024/01/12 10:05:59;;;;;;;14.02;3.60;;;;;;;2.99;100.00;103419.09;5083218;28;20485;-76
2024/01/12 10:08:40;;;;;;;12.23;4.20;;;;;;;3.03;100.00;103421.09;5085686;28;20083;-75
2024/01/12 10:11:07;;;;;;;13.57;3.15;;;;;;;3.06;100.00;103410.69;5081603;28;20094;-75
2024/01/12 10:13:33;;;;;;;6.32;3.13;;;;;;;3.11;100.00;103413.13;5085940;28;20076;-77
2024/01/12 10:16:01;;;;;;;4.60;2.63;;;;;;;3.15;100.00;103408.75;5083716;28;20044;-76
2024/01/12 10:18:28;;;;;;;6.57;3.10;;;;;;;3.21;100.00;103415.34;5083778;28;20052;-77
2024/01/12 10:20:56;;;;;;;14.48;3.55;;;;;;;3.25;100.00;103407.56;5076312;28;20052;-76
2024/01/12 10:23:25;;;;;;;12.23;3.47;;;;;;;3.29;100.00;103417.13;5084943;28;20076;-76
2024/01/12 10:25:58;;;;;;;6.97;2.95;;;;;;;3.34;100.00;103416.16;5084597;28;20049;-76
2024/01/12 10:28:32;;;;;;;10.10;3.70;;;;;;;3.38;100.00;103418.91;5077846;28;20095;-76
2024/01/12 10:31:06;;;;;;;9.57;3.05;;;;;;;3.40;100.00;103416.72;5078719;28;20528;-76
2024/01/12 10:33:34;;;;;;;9.93;3.70;;;;;;;3.44;100.00;103412.34;5079159;28;20116;-76
2024/01/12 10:36:21;;;;;;;12.13;3.10;;;;;;;3.48;100.00;103410.63;5086098;28;20049;-76
2024/01/12 10:38:50;;;;;;;9.38;3.00;;;;;;;3.51;100.00;103400.19;5082624;28;20879;-76
2024/01/12 10:41:21;;;;;;;11.90;2.95;;;;;;;3.54;100.00;103398.78;5082526;28;20040;-76
2024/01/12 10:43:53;;;;;;;13.10;3.72;;;;;;;3.57;99.70;103393.63;5084543;28;20037;-75
2024/01/12 10:46:45;;;;;;;8.93;3.58;;;;;;;3.64;99.52;103393.06;5080686;28;20898;-78
2024/01/12 10:49:13;;;;;;;11.30;2.95;;;;;;;3.68;99.19;103402.63;5079372;28;20136;-77
2024/01/12 10:51:52;;;;;;;10.25;2.72;;;;;;;3.72;98.88;103396.72;5083814;28;20462;-77
2024/01/12 10:54:27;;;;;;;10.15;2.80;;;;;;;3.77;98.61;103391.22;5082565;28;20197;-77
2024/01/12 10:56:55;;;;;;;11.45;2.78;;;;;;;3.81;98.01;103384.97;5086473;28;20441;-81
2024/01/12 10:59:23;;;;;;;5.93;2.50;;;;;;;3.83;97.82;103390.69;5085476;28;20045;-78
2024/01/12 11:01:50;;;;;;;8.48;3.25;;;;;;;3.86;97.38;103384.75;5082459;28;20431;-77
2024/01/12 11:04:16;;;;;;;9.48;3.50;;;;;;;3.90;97.33;103392.78;5082863;28;20065;-77
2024/01/12 11:06:45;;;;;;;10.55;2.72;;;;;;;3.93;97.17;103398.16;5083158;28;20482;-77
2024/01/12 11:09:16;;;;;;;14.52;3.33;;;;;;;3.96;97.08;103396.75;5082584;28;20517;-75
2024/01/12 11:11:49;;;;;;;8.45;3.00;;;;;;;3.97;96.94;103399.06;5084266;28;20045;-77
2024/01/12 11:14:17;;;;;;;12.60;2.67;;;;;;;4.01;96.72;103396.50;5083295;28;20552;-76
2024/01/12 11:16:44;;;;;;;10.82;2.88;;;;;;;4.05;96.66;103400.03;5083377;28;20182;-77
2024/01/12 11:19:12;;;;;;;7.95;3.25;;;;;;;4.10;96.55;103394.53;5083519;28;20041;-76
2024/01/12 11:21:40;;;;;;;14.57;2.50;;;;;;;4.12;96.58;103392.34;5083553;28;20107;-77
2024/01/12 11:24:10;;;;;;;11.95;3.15;;;;;;;4.15;96.44;103394.31;5083129;28;20084;-77